createdAt,value
2017-09-28T00:01:12.244Z,99714
2017-09-28T00:03:41.104Z,99713
2017-09-28T00:06:09.186Z,99723
2017-09-28T00:08:37.268Z,99716
2017-09-28T00:11:05.360Z,99722
2017-09-28T00:13:34.212Z,99723
2017-09-28T00:16:02.294Z,99717
2017-09-28T00:18:30.390Z,99720
2017-09-28T00:20:59.248Z,99709
2017-09-28T00:23:27.358Z,99719
2017-09-28T00:25:56.424Z,99715
2017-09-28T00:28:24.598Z,99711
2017-09-28T00:30:52.683Z,99714
2017-09-28T00:33:20.771Z,99706
2017-09-28T00:35:49.640Z,99713
2017-09-28T00:38:17.727Z,99714
2017-09-28T00:40:46.585Z,99712
2017-09-28T00:43:14.667Z,99711
2017-09-28T00:45:42.764Z,99712
2017-09-28T00:48:11.639Z,99721
2017-09-28T00:50:39.723Z,99719
2017-09-28T00:53:07.804Z,99710
2017-09-28T00:55:36.660Z,99711
2017-09-28T00:58:04.736Z,99708
2017-09-28T01:00:33.004Z,99719
2017-09-28T01:03:01.084Z,99707
2017-09-28T01:05:29.175Z,99712
2017-09-28T01:07:57.268Z,99712
2017-09-28T01:10:26.121Z,99707
2017-09-28T01:12:54.276Z,99723
2017-09-28T01:15:22.362Z,99715
2017-09-28T01:17:50.448Z,99720
2017-09-28T01:20:18.518Z,99728
2017-09-28T01:22:46.603Z,99728
2017-09-28T01:25:14.680Z,99712
2017-09-28T01:27:42.784Z,99733
2017-09-28T01:30:10.875Z,99719
2017-09-28T01:32:39.719Z,99715
2017-09-28T01:35:07.812Z,99717
2017-09-28T01:37:36.656Z,99728
2017-09-28T01:40:04.739Z,99718
2017-09-28T01:42:32.833Z,99722
2017-09-28T01:45:01.689Z,99722
2017-09-28T01:47:29.770Z,99714
2017-09-28T01:49:57.856Z,99717
2017-09-28T01:52:25.937Z,99710
2017-09-28T01:54:54.035Z,99713
2017-09-28T01:57:22.873Z,99714
2017-09-28T01:59:50.957Z,99711
2017-09-28T02:02:19.035Z,99714
2017-09-28T02:04:47.144Z,99713
2017-09-28T02:07:15.224Z,99714
2017-09-28T02:09:43.312Z,99727
2017-09-28T02:12:12.223Z,99724
2017-09-28T02:14:40.300Z,99721
2017-09-28T02:17:08.429Z,99719
2017-09-28T02:19:37.264Z,99716
2017-09-28T02:22:05.363Z,99719
2017-09-28T02:24:33.439Z,99721
2017-09-28T02:27:01.527Z,99717
2017-09-28T02:29:30.371Z,99737
2017-09-28T02:31:58.468Z,99725
2017-09-28T02:34:26.547Z,99719
2017-09-28T02:36:54.622Z,99716
2017-09-28T02:39:23.514Z,99718
2017-09-28T02:41:51.683Z,99720
2017-09-28T02:44:19.761Z,99726
2017-09-28T02:46:47.836Z,99722
2017-09-28T02:49:16.700Z,99725
2017-09-28T02:51:44.789Z,99734
2017-09-28T02:54:12.880Z,99731
2017-09-28T02:56:41.729Z,99741
2017-09-28T02:59:09.816Z,99742
2017-09-28T03:01:37.892Z,99743
2017-09-28T03:04:05.984Z,99741
2017-09-28T03:06:34.832Z,99736
2017-09-28T03:09:02.935Z,99735
2017-09-28T03:11:31.803Z,99755
2017-09-28T03:13:59.880Z,99754
2017-09-28T03:16:27.968Z,99748
2017-09-28T03:18:56.035Z,99743
2017-09-28T03:21:24.120Z,99731
2017-09-28T03:23:52.191Z,99734
2017-09-28T03:26:20.281Z,99736
2017-09-28T03:28:49.178Z,99733
2017-09-28T03:31:18.044Z,99739
2017-09-28T03:33:46.122Z,99742
2017-09-28T03:36:14.204Z,99724
2017-09-28T03:38:43.061Z,99728
2017-09-28T03:41:11.167Z,99732
2017-09-28T03:43:40.029Z,99727
2017-09-28T03:46:08.138Z,99744
2017-09-28T03:48:36.992Z,99747
2017-09-28T03:51:05.076Z,99743
2017-09-28T03:53:33.180Z,99740
2017-09-28T03:56:02.032Z,99748
2017-09-28T03:58:30.144Z,99751
2017-09-28T04:00:59.007Z,99760
2017-09-28T04:03:27.096Z,99748
2017-09-28T04:05:55.964Z,99760
2017-09-28T04:08:24.070Z,99761
2017-09-28T04:10:52.927Z,99759
2017-09-28T04:13:21.028Z,99766
2017-09-28T04:15:49.880Z,99760
2017-09-28T04:18:17.977Z,99762
2017-09-28T04:20:46.055Z,99769
2017-09-28T04:23:14.912Z,99763
2017-09-28T04:25:43.011Z,99767
2017-09-28T04:28:11.094Z,99770
2017-09-28T04:30:39.954Z,99755
2017-09-28T04:33:08.037Z,99767
2017-09-28T04:35:36.140Z,99764
2017-09-28T04:38:04.974Z,99768
2017-09-28T04:40:33.292Z,99765
2017-09-28T04:43:01.375Z,99768
2017-09-28T04:45:30.227Z,99767
2017-09-28T04:47:58.310Z,99762
2017-09-28T04:50:26.407Z,99757
2017-09-28T04:52:55.263Z,99766
2017-09-28T04:55:23.351Z,99760
2017-09-28T04:57:51.437Z,99764
2017-09-28T05:00:19.511Z,99764
2017-09-28T05:02:47.600Z,99773
2017-09-28T05:05:16.448Z,99771
2017-09-28T05:07:44.532Z,99771
2017-09-28T05:10:12.620Z,99770
2017-09-28T05:12:40.708Z,99776
2017-09-28T05:15:09.552Z,99767
2017-09-28T05:17:37.646Z,99776
2017-09-28T05:20:05.726Z,99782
2017-09-28T05:22:33.807Z,99788
2017-09-28T05:25:02.676Z,99780
2017-09-28T05:27:30.757Z,99780
2017-09-28T05:29:58.840Z,99778
2017-09-28T05:32:26.914Z,99774
2017-09-28T05:34:55.771Z,99761
2017-09-28T05:37:23.849Z,99770
2017-09-28T05:39:51.930Z,99768
2017-09-28T05:42:20.016Z,99768
2017-09-28T05:44:48.146Z,99753
2017-09-28T05:47:16.258Z,99766
2017-09-28T05:49:44.378Z,99769
2017-09-28T05:52:12.478Z,99774
2017-09-28T05:54:40.565Z,99786
2017-09-28T05:57:08.656Z,99782
2017-09-28T05:59:36.739Z,99788
2017-09-28T06:02:05.612Z,99783
2017-09-28T06:04:33.689Z,99791
2017-09-28T06:07:01.766Z,99790
2017-09-28T06:09:30.621Z,99797
2017-09-28T06:11:58.731Z,99796
2017-09-28T06:14:27.601Z,99788
2017-09-28T06:16:55.707Z,99790
2017-09-28T06:19:24.569Z,99786
2017-09-28T06:21:52.669Z,99779
2017-09-28T06:24:21.537Z,99774
2017-09-28T06:26:49.631Z,99780
2017-09-28T06:29:18.491Z,99778
2017-09-28T06:31:46.583Z,99786
2017-09-28T06:34:14.655Z,99794
2017-09-28T06:36:42.743Z,99798
2017-09-28T06:39:11.597Z,99790
2017-09-28T06:41:39.692Z,99792
2017-09-28T06:44:07.768Z,99795
2017-09-28T06:46:36.086Z,99799
2017-09-28T06:49:04.164Z,99797
2017-09-28T06:51:32.252Z,99809
2017-09-28T06:54:00.336Z,99810
2017-09-28T06:56:28.432Z,99805
2017-09-28T06:58:56.511Z,99807
2017-09-28T07:01:24.600Z,99803
2017-09-28T07:03:53.440Z,99797
2017-09-28T07:06:21.545Z,99805
2017-09-28T07:08:50.408Z,99791
2017-09-28T07:11:18.497Z,99796
2017-09-28T07:13:46.584Z,99800
2017-09-28T07:16:15.424Z,99796
2017-09-28T07:18:43.517Z,99804
2017-09-28T07:21:11.611Z,99808
2017-09-28T07:23:39.712Z,99809
2017-09-28T07:26:08.637Z,99811
2017-09-28T07:28:36.733Z,99805
2017-09-28T07:31:04.815Z,99808
2017-09-28T07:33:32.905Z,99796
2017-09-28T07:36:00.985Z,99793
2017-09-28T07:38:29.864Z,99808
2017-09-28T07:40:57.947Z,99826
2017-09-28T07:43:26.805Z,99824
2017-09-28T07:45:54.892Z,99818
2017-09-28T07:48:22.988Z,99822
2017-09-28T07:50:51.844Z,99809
2017-09-28T07:53:19.940Z,99823
2017-09-28T07:55:48.010Z,99826
2017-09-28T07:58:16.092Z,99826
2017-09-28T08:00:44.948Z,99835
2017-09-28T08:03:13.036Z,99829
2017-09-28T08:05:41.119Z,99827
2017-09-28T08:08:09.983Z,99838
2017-09-28T08:10:38.061Z,99831
2017-09-28T08:13:06.152Z,99824
2017-09-28T08:15:34.224Z,99829
2017-09-28T08:18:02.320Z,99830
2017-09-28T08:20:31.170Z,99836
2017-09-28T08:22:59.247Z,99830
2017-09-28T08:25:27.336Z,99818
2017-09-28T08:27:55.426Z,99830
2017-09-28T08:30:24.273Z,99830
2017-09-28T08:32:52.373Z,99828
2017-09-28T08:35:20.431Z,99838
2017-09-28T08:37:48.525Z,99834
2017-09-28T08:40:16.591Z,99825
2017-09-28T08:42:45.452Z,99812
2017-09-28T08:45:13.525Z,99826
2017-09-28T08:47:41.623Z,99824
2017-09-28T08:50:09.696Z,99829
2017-09-28T08:52:37.775Z,99822
2017-09-28T08:55:05.860Z,99819
2017-09-28T08:57:34.712Z,99813
2017-09-28T09:00:02.797Z,99824
2017-09-28T09:02:30.893Z,99827
2017-09-28T09:04:59.749Z,99823
2017-09-28T09:07:28.056Z,99833
2017-09-28T09:09:56.913Z,99824
2017-09-28T09:12:25.000Z,99832
2017-09-28T09:14:54.091Z,99822
2017-09-28T09:17:22.177Z,99824
2017-09-28T09:19:50.254Z,99813
2017-09-28T09:22:18.340Z,99822
2017-09-28T09:24:47.191Z,99808
2017-09-28T09:27:15.280Z,99808
2017-09-28T09:29:43.359Z,99806
2017-09-28T09:32:11.443Z,99807
2017-09-28T09:34:40.297Z,99804
2017-09-28T09:37:08.389Z,99811
2017-09-28T09:39:36.467Z,99804
2017-09-28T09:42:04.572Z,99803
2017-09-28T09:44:33.431Z,99791
2017-09-28T09:47:01.504Z,99801
2017-09-28T09:49:29.589Z,99800
2017-09-28T09:51:58.432Z,99805
2017-09-28T09:54:26.519Z,99802
2017-09-28T09:56:54.617Z,99790
2017-09-28T09:59:22.696Z,99793
2017-09-28T10:01:51.553Z,99788
2017-09-28T10:04:19.649Z,99788
2017-09-28T10:06:52.146Z,99781
2017-09-28T10:09:24.057Z,99778
2017-09-28T10:11:59.228Z,99774
2017-09-28T10:14:29.980Z,99775
2017-09-28T10:16:58.843Z,99784
2017-09-28T10:19:26.957Z,99785
2017-09-28T10:21:55.796Z,99775
2017-09-28T10:24:23.888Z,99771
2017-09-28T10:26:51.967Z,99775
2017-09-28T10:29:20.060Z,99771
2017-09-28T10:31:48.913Z,99771
2017-09-28T10:34:17.003Z,99774
2017-09-28T10:36:45.869Z,99772
2017-09-28T10:39:13.973Z,99774
2017-09-28T10:41:42.055Z,99772
2017-09-28T10:44:10.984Z,99768
2017-09-28T10:46:39.092Z,99766
2017-09-28T10:49:07.172Z,99770
2017-09-28T10:51:35.313Z,99770
2017-09-28T10:54:03.411Z,99770
2017-09-28T10:56:31.505Z,99759
2017-09-28T10:59:00.364Z,99756
2017-09-28T11:01:28.450Z,99749
2017-09-28T11:03:56.553Z,99750
2017-09-28T11:06:25.401Z,99749
2017-09-28T11:08:53.494Z,99750
2017-09-28T11:11:21.581Z,99744
2017-09-28T11:13:50.452Z,99737
2017-09-28T11:16:18.528Z,99731
2017-09-28T11:18:46.632Z,99732
2017-09-28T11:21:15.493Z,99735
2017-09-28T11:23:43.595Z,99727
2017-09-28T11:26:12.205Z,99736
2017-09-28T11:28:40.321Z,99727
2017-09-28T11:31:08.400Z,99724
2017-09-28T11:33:36.492Z,99707
2017-09-28T11:36:05.340Z,99708
2017-09-28T11:38:33.442Z,99707
2017-09-28T11:41:01.527Z,99711
2017-09-28T11:43:30.398Z,99714
2017-09-28T11:45:58.489Z,99716
2017-09-28T11:48:27.345Z,99706
2017-09-28T11:50:55.436Z,99696
2017-09-28T11:53:23.528Z,99684
2017-09-28T11:55:52.401Z,99680
2017-09-28T11:58:20.492Z,99676
2017-09-28T12:00:49.352Z,99693
2017-09-28T12:03:17.461Z,99700
2017-09-28T12:05:46.331Z,99690
2017-09-28T12:08:14.423Z,99690
2017-09-28T12:10:43.284Z,99689
2017-09-28T12:13:11.376Z,99691
2017-09-28T12:15:40.229Z,99700
2017-09-28T12:18:08.329Z,99689
2017-09-28T12:20:36.430Z,99692
2017-09-28T12:23:05.295Z,99691
2017-09-28T12:25:34.408Z,99686
2017-09-28T12:28:03.268Z,99695
2017-09-28T12:30:31.355Z,99688
2017-09-28T12:32:59.453Z,99689
2017-09-28T12:35:27.560Z,99684
2017-09-28T12:37:55.638Z,99688
2017-09-28T12:40:23.736Z,99691
2017-09-28T12:42:51.818Z,99696
2017-09-28T12:45:20.701Z,99698
2017-09-28T12:47:48.795Z,99698
2017-09-28T12:50:17.677Z,99698
2017-09-28T12:52:46.546Z,99689
2017-09-28T12:55:14.656Z,99699
2017-09-28T12:57:43.518Z,99698
2017-09-28T13:00:11.619Z,99703
2017-09-28T13:02:40.472Z,99700
2017-09-28T13:05:08.566Z,99701
2017-09-28T13:07:36.652Z,99696
2017-09-28T13:10:05.521Z,99699
2017-09-28T13:12:33.662Z,99701
2017-09-28T13:15:02.721Z,99694
2017-09-28T13:17:31.583Z,99688
2017-09-28T13:19:59.672Z,99692
2017-09-28T13:22:28.535Z,99696
2017-09-28T13:24:56.625Z,99691
2017-09-28T13:27:24.712Z,99691
2017-09-28T13:29:53.588Z,99689
2017-09-28T13:32:21.673Z,99692
2017-09-28T13:34:50.547Z,99692
2017-09-28T13:37:18.651Z,99691
2017-09-28T13:39:47.537Z,99691
2017-09-28T13:42:16.389Z,99687
2017-09-28T13:44:45.191Z,99698
2017-09-28T13:47:14.101Z,99687
2017-09-28T13:49:42.981Z,99692
2017-09-28T13:52:11.067Z,99684
2017-09-28T13:54:39.938Z,99688
2017-09-28T13:57:08.021Z,99690
2017-09-28T13:59:36.119Z,99688
2017-09-28T14:02:04.219Z,99684
2017-09-28T14:04:32.325Z,99686
2017-09-28T14:07:00.419Z,99679
2017-09-28T14:09:29.305Z,99686
2017-09-28T14:11:57.402Z,99683
2017-09-28T14:14:25.512Z,99688
2017-09-28T14:16:53.617Z,99689
2017-09-28T14:19:21.718Z,99689
2017-09-28T14:21:50.578Z,99681
2017-09-28T14:24:18.687Z,99677
2017-09-28T14:26:47.549Z,99682
2017-09-28T14:29:15.653Z,99680
2017-09-28T14:31:43.764Z,99687
2017-09-28T14:34:11.861Z,99679
2017-09-28T14:36:39.941Z,99682
2017-09-28T14:39:08.038Z,99682
2017-09-28T14:41:36.895Z,99676
2017-09-28T14:44:04.999Z,99684
2017-09-28T14:46:33.839Z,99676
2017-09-28T14:49:01.919Z,99680
2017-09-28T14:51:29.991Z,99677
2017-09-28T14:54:08.654Z,99670
2017-09-28T14:56:36.763Z,99678
2017-09-28T14:59:04.840Z,99664
2017-09-28T15:01:32.951Z,99671
2017-09-28T15:04:01.028Z,99671
2017-09-28T15:06:29.100Z,99677
2017-09-28T15:08:57.972Z,99671
2017-09-28T15:11:26.047Z,99669
2017-09-28T15:13:54.139Z,99669
2017-09-28T15:16:22.987Z,99668
2017-09-28T15:18:51.072Z,99665
2017-09-28T15:21:19.160Z,99671
2017-09-28T15:23:47.243Z,99675
2017-09-28T15:26:15.395Z,99671
2017-09-28T15:28:43.474Z,99669
2017-09-28T15:31:11.561Z,99667
2017-09-28T15:33:39.639Z,99665
2017-09-28T15:36:07.729Z,99669
2017-09-28T15:38:36.555Z,99670
2017-09-28T15:41:05.401Z,99673
2017-09-28T15:43:34.275Z,99670
2017-09-28T15:46:02.372Z,99674
2017-09-28T15:48:31.227Z,99672
2017-09-28T15:50:59.325Z,99674
2017-09-28T15:53:28.180Z,99674
2017-09-28T15:55:56.287Z,99675
2017-09-28T15:58:25.146Z,99669
2017-09-28T16:00:53.242Z,99672
2017-09-28T16:03:21.316Z,99673
2017-09-28T16:05:49.395Z,99671
2017-09-28T16:08:17.476Z,99672
2017-09-28T16:10:46.332Z,99672
2017-09-28T16:13:14.406Z,99682
2017-09-28T16:15:43.407Z,99670
2017-09-28T16:18:11.480Z,99681
2017-09-28T16:20:39.568Z,99680
2017-09-28T16:23:07.639Z,99682
2017-09-28T16:25:35.735Z,99678
2017-09-28T16:28:04.577Z,99689
2017-09-28T16:30:32.721Z,99689
2017-09-28T16:33:00.805Z,99688
2017-09-28T16:35:28.890Z,99691
2017-09-28T16:37:56.980Z,99690
2017-09-28T16:40:25.068Z,99695
2017-09-28T16:42:53.170Z,99694
2017-09-28T16:45:22.031Z,99687
2017-09-28T16:47:50.112Z,99686
2017-09-28T16:50:18.979Z,99686
2017-09-28T16:52:47.067Z,99688
2017-09-28T16:55:15.146Z,99687
2017-09-28T16:57:44.010Z,99690
2017-09-28T17:00:12.103Z,99689
2017-09-28T17:02:40.176Z,99696
2017-09-28T17:05:08.924Z,99688
2017-09-28T17:07:37.012Z,99696
2017-09-28T17:10:05.121Z,99698
2017-09-28T17:12:33.975Z,99693
2017-09-28T17:15:02.055Z,99695
2017-09-28T17:17:30.131Z,99705
2017-09-28T17:19:58.228Z,99701
2017-09-28T17:22:27.069Z,99702
2017-09-28T17:24:55.168Z,99704
2017-09-28T17:27:23.239Z,99710
2017-09-28T17:29:51.319Z,99709
2017-09-28T17:32:19.396Z,99714
2017-09-28T17:34:47.479Z,99712
2017-09-28T17:37:16.331Z,99713
2017-09-28T17:39:44.435Z,99720
2017-09-28T17:42:12.504Z,99723
2017-09-28T17:44:40.595Z,99727
2017-09-28T17:47:09.431Z,99728
2017-09-28T17:49:37.512Z,99738
2017-09-28T17:52:05.605Z,99736
2017-09-28T17:54:33.696Z,99748
2017-09-28T17:57:02.546Z,99738
2017-09-28T17:59:30.644Z,99748
2017-09-28T18:01:58.722Z,99752
2017-09-28T18:04:26.804Z,99753
2017-09-28T18:06:55.660Z,99758
2017-09-28T18:09:23.747Z,99748
2017-09-28T18:11:51.829Z,99754
2017-09-28T18:14:19.912Z,99751
2017-09-28T18:16:48.755Z,99758
2017-09-28T18:19:17.692Z,99745
2017-09-28T18:21:45.767Z,99758
2017-09-28T18:24:14.620Z,99750
2017-09-28T18:26:42.714Z,99758
2017-09-28T18:29:10.783Z,99754
2017-09-28T18:31:38.872Z,99760
2017-09-28T18:34:06.952Z,99754
2017-09-28T18:36:35.804Z,99750
2017-09-28T18:39:03.892Z,99762
2017-09-28T18:41:31.980Z,99757
2017-09-28T18:44:00.059Z,99747
2017-09-28T18:46:28.912Z,99756
2017-09-28T18:48:56.984Z,99761
2017-09-28T18:51:25.076Z,99757
2017-09-28T18:53:53.156Z,99754
2017-09-28T18:56:21.244Z,99745
2017-09-28T18:58:50.092Z,99761
2017-09-28T19:01:18.183Z,99757
2017-09-28T19:03:46.273Z,99759
2017-09-28T19:06:15.142Z,99754
2017-09-28T19:08:43.251Z,99754
2017-09-28T19:11:12.108Z,99748
2017-09-28T19:13:40.212Z,99750
2017-09-28T19:16:09.084Z,99756
2017-09-28T19:18:37.193Z,99752
2017-09-28T19:21:05.316Z,99756
2017-09-28T19:23:33.495Z,99759
2017-09-28T19:26:01.605Z,99765
2017-09-28T19:28:29.680Z,99763
2017-09-28T19:30:57.840Z,99771
2017-09-28T19:33:26.691Z,99762
2017-09-28T19:35:54.794Z,99768
2017-09-28T19:38:22.917Z,99772
2017-09-28T19:40:51.013Z,99763
2017-09-28T19:43:19.107Z,99760
2017-09-28T19:45:47.252Z,99769
2017-09-28T19:48:15.372Z,99767
2017-09-28T19:50:44.227Z,99770
2017-09-28T19:53:12.312Z,99761
2017-09-28T19:55:40.400Z,99768
2017-09-28T19:58:08.485Z,99760
2017-09-28T20:00:37.347Z,99767
2017-09-28T20:03:05.441Z,99760
2017-09-28T20:05:34.312Z,99755
2017-09-28T20:08:02.397Z,99759
2017-09-28T20:10:30.490Z,99755
2017-09-28T20:12:58.604Z,99762
2017-09-28T20:15:26.701Z,99756
2017-09-28T20:17:55.010Z,99757
2017-09-28T20:20:23.881Z,99749
2017-09-28T20:22:51.971Z,99763
2017-09-28T20:25:20.957Z,99764
2017-09-28T20:27:49.834Z,99758
2017-09-28T20:30:17.929Z,99761
2017-09-28T20:32:46.792Z,99765
2017-09-28T20:35:14.887Z,99763
2017-09-28T20:37:43.749Z,99766
2017-09-28T20:40:11.839Z,99757
2017-09-28T20:42:39.923Z,99760
2017-09-28T20:45:08.788Z,99763
2017-09-28T20:47:36.883Z,99761
2017-09-28T20:50:05.756Z,99757
2017-09-28T20:52:33.853Z,99760
2017-09-28T20:55:02.727Z,99758
2017-09-28T20:57:30.821Z,99774
2017-09-28T20:59:59.680Z,99768
2017-09-28T21:02:27.778Z,99771
2017-09-28T21:04:56.623Z,99771
2017-09-28T21:07:25.484Z,99776
2017-09-28T21:09:53.558Z,99765
2017-09-28T21:12:21.655Z,99766
2017-09-28T21:14:49.753Z,99763
2017-09-28T21:17:17.849Z,99768
2017-09-28T21:19:45.932Z,99765
2017-09-28T21:22:14.796Z,99766
2017-09-28T21:24:42.911Z,99766
2017-09-28T21:27:11.028Z,99765
2017-09-28T21:29:39.122Z,99763
2017-09-28T21:32:07.222Z,99768
2017-09-28T21:34:36.093Z,99750
2017-09-28T21:37:04.180Z,99752
2017-09-28T21:39:33.045Z,99738
2017-09-28T21:42:01.127Z,99741
2017-09-28T21:44:29.212Z,99750
2017-09-28T21:46:58.096Z,99747
2017-09-28T21:49:26.180Z,99750
2017-09-28T21:51:55.032Z,99747
2017-09-28T21:54:23.135Z,99751
2017-09-28T21:56:51.997Z,99748
2017-09-28T21:59:20.113Z,99750
2017-09-28T22:01:48.973Z,99742
2017-09-28T22:04:17.060Z,99753
2017-09-28T22:06:45.912Z,99753
2017-09-28T22:09:14.007Z,99745
2017-09-28T22:11:42.097Z,99742
2017-09-28T22:14:10.212Z,99749
2017-09-28T22:16:38.303Z,99752
2017-09-28T22:19:06.398Z,99746
2017-09-28T22:21:34.512Z,99753
2017-09-28T22:24:03.388Z,99760
2017-09-28T22:26:32.258Z,99751
2017-09-28T22:29:00.353Z,99763
2017-09-28T22:31:29.353Z,99759
2017-09-28T22:33:58.204Z,99751
2017-09-28T22:36:26.301Z,99753
2017-09-28T22:38:54.379Z,99767
2017-09-28T22:41:23.236Z,99758
2017-09-28T22:43:51.321Z,99759
2017-09-28T22:46:19.416Z,99756
2017-09-28T22:48:47.484Z,99764
2017-09-28T22:51:15.577Z,99759
2017-09-28T22:53:44.435Z,99756
2017-09-28T22:56:12.519Z,99746
2017-09-28T22:58:40.596Z,99748
2017-09-28T23:01:08.703Z,99745
2017-09-28T23:03:36.795Z,99745
2017-09-28T23:06:04.896Z,99741
2017-09-28T23:08:32.968Z,99733
2017-09-28T23:11:01.052Z,99737
2017-09-28T23:13:29.128Z,99736
2017-09-28T23:15:57.253Z,99735
2017-09-28T23:18:25.331Z,99737
2017-09-28T23:20:53.420Z,99739
2017-09-28T23:23:21.492Z,99737
2017-09-28T23:25:49.579Z,99729
2017-09-28T23:28:17.661Z,99729
2017-09-28T23:30:45.741Z,99726
2017-09-28T23:33:14.604Z,99737
2017-09-28T23:35:42.715Z,99727
2017-09-28T23:38:11.564Z,99736
2017-09-28T23:40:39.632Z,99730
2017-09-28T23:43:07.726Z,99731
2017-09-28T23:45:35.815Z,99735
2017-09-28T23:48:04.671Z,99733
2017-09-28T23:50:32.748Z,99727
2017-09-28T23:53:00.840Z,99729
2017-09-28T23:55:28.928Z,99726
2017-09-28T23:57:57.786Z,99722
